sensor_id;sensor_type;location;lat;lon;timestamp;P1;durP1;ratioP1;P2;durP2;ratioP2
956;SDS011;465;48.802;9.224;2022-08-19T00:01:54;19.20;;;17.33;;
956;SDS011;465;48.802;9.224;2022-08-19T00:04:23;18.30;;;16.70;;
956;SDS011;465;48.802;9.224;2022-08-19T00:06:52;17.90;;;16.30;;
956;SDS011;465;48.802;9.224;2022-08-19T00:09:20;18.43;;;16.73;;
956;SDS011;465;48.802;9.224;2022-08-19T00:11:48;17.93;;;16.33;;
956;SDS011;465;48.802;9.224;2022-08-19T00:14:16;18.50;;;17.00;;
956;SDS011;465;48.802;9.224;2022-08-19T00:16:45;18.93;;;17.33;;
956;SDS011;465;48.802;9.224;2022-08-19T00:19:13;18.57;;;16.97;;
956;SDS011;465;48.802;9.224;2022-08-19T00:21:41;18.57;;;16.90;;
956;SDS011;465;48.802;9.224;2022-08-19T00:24:09;20.13;;;18.13;;
956;SDS011;465;48.802;9.224;2022-08-19T00:26:37;17.93;;;16.43;;
956;SDS011;465;48.802;9.224;2022-08-19T00:29:05;18.47;;;16.67;;
956;SDS011;465;48.802;9.224;2022-08-19T00:31:33;18.63;;;16.93;;
956;SDS011;465;48.802;9.224;2022-08-19T00:34:02;19.23;;;17.43;;
956;SDS011;465;48.802;9.224;2022-08-19T00:36:29;18.27;;;16.67;;
956;SDS011;465;48.802;9.224;2022-08-19T00:38:57;18.33;;;16.80;;
956;SDS011;465;48.802;9.224;2022-08-19T00:41:25;18.73;;;17.10;;
956;SDS011;465;48.802;9.224;2022-08-19T00:43:58;19.40;;;17.70;;
956;SDS011;465;48.802;9.224;2022-08-19T00:46:28;19.60;;;17.90;;
956;SDS011;465;48.802;9.224;2022-08-19T00:48:56;19.03;;;17.23;;
956;SDS011;465;48.802;9.224;2022-08-19T00:51:25;18.17;;;16.57;;
956;SDS011;465;48.802;9.224;2022-08-19T00:53:53;20.13;;;18.13;;
956;SDS011;465;48.802;9.224;2022-08-19T00:56:21;18.40;;;16.80;;
956;SDS011;465;48.802;9.224;2022-08-19T00:58:48;19.13;;;17.37;;
956;SDS011;465;48.802;9.224;2022-08-19T01:01:15;18.73;;;16.90;;
956;SDS011;465;48.802;9.224;2022-08-19T01:03:42;18.17;;;16.60;;
956;SDS011;465;48.802;9.224;2022-08-19T01:06:09;18.97;;;17.43;;
956;SDS011;465;48.802;9.224;2022-08-19T01:08:37;19.13;;;17.10;;
956;SDS011;465;48.802;9.224;2022-08-19T01:11:04;17.97;;;16.23;;
956;SDS011;465;48.802;9.224;2022-08-19T01:13:32;17.97;;;16.37;;
956;SDS011;465;48.802;9.224;2022-08-19T01:16:00;19.00;;;17.40;;
956;SDS011;465;48.802;9.224;2022-08-19T01:18:30;20.20;;;18.40;;
956;SDS011;465;48.802;9.224;2022-08-19T01:21:00;19.40;;;17.70;;
956;SDS011;465;48.802;9.224;2022-08-19T01:23:33;18.13;;;16.43;;
956;SDS011;465;48.802;9.224;2022-08-19T01:26:10;17.60;;;16.10;;
956;SDS011;465;48.802;9.224;2022-08-19T01:28:39;19.93;;;18.33;;
956;SDS011;465;48.802;9.224;2022-08-19T01:31:08;19.87;;;17.90;;
956;SDS011;465;48.802;9.224;2022-08-19T01:33:36;18.87;;;17.23;;
956;SDS011;465;48.802;9.224;2022-08-19T01:36:12;19.80;;;17.87;;
956;SDS011;465;48.802;9.224;2022-08-19T01:38:43;18.77;;;17.07;;
956;SDS011;465;48.802;9.224;2022-08-19T01:41:11;19.73;;;17.90;;
956;SDS011;465;48.802;9.224;2022-08-19T01:43:38;20.43;;;17.93;;
956;SDS011;465;48.802;9.224;2022-08-19T01:46:06;20.20;;;18.40;;
956;SDS011;465;48.802;9.224;2022-08-19T01:48:33;18.90;;;17.27;;
956;SDS011;465;48.802;9.224;2022-08-19T01:51:01;20.10;;;18.20;;
956;SDS011;465;48.802;9.224;2022-08-19T01:53:28;19.77;;;17.87;;
956;SDS011;465;48.802;9.224;2022-08-19T01:55:57;21.50;;;19.60;;
956;SDS011;465;48.802;9.224;2022-08-19T01:58:24;19.93;;;17.90;;
956;SDS011;465;48.802;9.224;2022-08-19T02:00:55;20.13;;;18.00;;
956;SDS011;465;48.802;9.224;2022-08-19T02:03:22;20.30;;;18.40;;
956;SDS011;465;48.802;9.224;2022-08-19T02:05:53;22.73;;;20.60;;
956;SDS011;465;48.802;9.224;2022-08-19T02:08:21;20.23;;;18.37;;
956;SDS011;465;48.802;9.224;2022-08-19T02:10:48;22.70;;;20.50;;
956;SDS011;465;48.802;9.224;2022-08-19T02:13:17;22.00;;;19.90;;
956;SDS011;465;48.802;9.224;2022-08-19T02:15:43;21.43;;;19.47;;
956;SDS011;465;48.802;9.224;2022-08-19T02:18:10;23.00;;;20.77;;
956;SDS011;465;48.802;9.224;2022-08-19T02:20:38;21.10;;;19.10;;
956;SDS011;465;48.802;9.224;2022-08-19T02:23:06;23.00;;;20.87;;
956;SDS011;465;48.802;9.224;2022-08-19T02:25:33;22.80;;;20.60;;
956;SDS011;465;48.802;9.224;2022-08-19T02:28:00;22.73;;;20.63;;
956;SDS011;465;48.802;9.224;2022-08-19T02:30:29;22.03;;;19.93;;
956;SDS011;465;48.802;9.224;2022-08-19T02:32:55;24.63;;;22.37;;
956;SDS011;465;48.802;9.224;2022-08-19T02:35:23;23.80;;;21.67;;
956;SDS011;465;48.802;9.224;2022-08-19T02:37:50;24.50;;;22.10;;
956;SDS011;465;48.802;9.224;2022-08-19T02:40:35;24.37;;;22.00;;
956;SDS011;465;48.802;9.224;2022-08-19T02:43:02;24.43;;;22.03;;
956;SDS011;465;48.802;9.224;2022-08-19T02:45:33;24.73;;;21.40;;
956;SDS011;465;48.802;9.224;2022-08-19T02:48:04;24.90;;;22.40;;
956;SDS011;465;48.802;9.224;2022-08-19T02:50:30;26.10;;;23.67;;
956;SDS011;465;48.802;9.224;2022-08-19T02:52:58;24.37;;;22.07;;
956;SDS011;465;48.802;9.224;2022-08-19T02:55:24;26.97;;;24.40;;
956;SDS011;465;48.802;9.224;2022-08-19T02:57:51;23.60;;;21.40;;
956;SDS011;465;48.802;9.224;2022-08-19T03:00:18;26.70;;;24.10;;
956;SDS011;465;48.802;9.224;2022-08-19T03:02:47;27.27;;;24.67;;
956;SDS011;465;48.802;9.224;2022-08-19T03:05:13;26.83;;;24.43;;
956;SDS011;465;48.802;9.224;2022-08-19T03:07:40;25.37;;;23.07;;
956;SDS011;465;48.802;9.224;2022-08-19T03:10:07;26.37;;;23.80;;
956;SDS011;465;48.802;9.224;2022-08-19T03:12:35;26.53;;;23.93;;
956;SDS011;465;48.802;9.224;2022-08-19T03:15:03;27.13;;;24.43;;
956;SDS011;465;48.802;9.224;2022-08-19T03:17:31;27.47;;;24.97;;
956;SDS011;465;48.802;9.224;2022-08-19T03:19:59;26.67;;;23.83;;
956;SDS011;465;48.802;9.224;2022-08-19T03:22:26;26.90;;;24.37;;
956;SDS011;465;48.802;9.224;2022-08-19T03:24:53;27.77;;;24.97;;
956;SDS011;465;48.802;9.224;2022-08-19T03:27:20;29.23;;;26.37;;
956;SDS011;465;48.802;9.224;2022-08-19T03:29:47;26.90;;;24.17;;
956;SDS011;465;48.802;9.224;2022-08-19T03:32:14;28.30;;;25.50;;
956;SDS011;465;48.802;9.224;2022-08-19T03:34:40;26.90;;;24.40;;
956;SDS011;465;48.802;9.224;2022-08-19T03:37:09;27.80;;;25.20;;
956;SDS011;465;48.802;9.224;2022-08-19T03:39:38;26.97;;;24.33;;
956;SDS011;465;48.802;9.224;2022-08-19T03:42:06;26.03;;;23.73;;
956;SDS011;465;48.802;9.224;2022-08-19T03:44:32;30.07;;;27.07;;
956;SDS011;465;48.802;9.224;2022-08-19T03:47:01;26.70;;;24.20;;
956;SDS011;465;48.802;9.224;2022-08-19T03:49:31;28.80;;;25.97;;
956;SDS011;465;48.802;9.224;2022-08-19T03:52:00;28.97;;;26.13;;
956;SDS011;465;48.802;9.224;2022-08-19T03:54:28;30.00;;;27.17;;
956;SDS011;465;48.802;9.224;2022-08-19T03:56:56;29.27;;;26.40;;
956;SDS011;465;48.802;9.224;2022-08-19T03:59:24;28.33;;;25.43;;
956;SDS011;465;48.802;9.224;2022-08-19T04:01:53;29.60;;;26.93;;
956;SDS011;465;48.802;9.224;2022-08-19T04:04:20;27.30;;;24.70;;
956;SDS011;465;48.802;9.224;2022-08-19T04:06:47;30.03;;;26.80;;
956;SDS011;465;48.802;9.224;2022-08-19T04:09:14;29.57;;;26.87;;
956;SDS011;465;48.802;9.224;2022-08-19T04:11:43;27.97;;;25.27;;
956;SDS011;465;48.802;9.224;2022-08-19T04:14:12;31.10;;;28.20;;
956;SDS011;465;48.802;9.224;2022-08-19T04:16:40;29.13;;;26.53;;
956;SDS011;465;48.802;9.224;2022-08-19T04:19:08;30.07;;;27.37;;
956;SDS011;465;48.802;9.224;2022-08-19T04:21:35;29.47;;;26.53;;
956;SDS011;465;48.802;9.224;2022-08-19T04:24:02;29.17;;;26.27;;
956;SDS011;465;48.802;9.224;2022-08-19T04:26:32;31.07;;;28.17;;
956;SDS011;465;48.802;9.224;2022-08-19T04:29:03;29.80;;;26.90;;
956;SDS011;465;48.802;9.224;2022-08-19T04:31:32;31.17;;;27.93;;
956;SDS011;465;48.802;9.224;2022-08-19T04:34:01;30.30;;;27.57;;
956;SDS011;465;48.802;9.224;2022-08-19T04:36:31;31.67;;;28.67;;
956;SDS011;465;48.802;9.224;2022-08-19T04:38:59;30.70;;;27.70;;
956;SDS011;465;48.802;9.224;2022-08-19T04:41:28;30.63;;;27.83;;
956;SDS011;465;48.802;9.224;2022-08-19T04:44:14;31.30;;;27.57;;
956;SDS011;465;48.802;9.224;2022-08-19T04:46:43;29.10;;;26.30;;
956;SDS011;465;48.802;9.224;2022-08-19T04:49:10;30.87;;;27.70;;
956;SDS011;465;48.802;9.224;2022-08-19T04:51:39;30.17;;;27.27;;
956;SDS011;465;48.802;9.224;2022-08-19T04:54:07;29.70;;;26.90;;
956;SDS011;465;48.802;9.224;2022-08-19T04:56:34;30.33;;;27.17;;
956;SDS011;465;48.802;9.224;2022-08-19T04:59:01;30.90;;;27.80;;
956;SDS011;465;48.802;9.224;2022-08-19T05:01:31;30.80;;;28.07;;
956;SDS011;465;48.802;9.224;2022-08-19T05:04:00;29.20;;;26.50;;
956;SDS011;465;48.802;9.224;2022-08-19T05:06:29;32.60;;;29.60;;
956;SDS011;465;48.802;9.224;2022-08-19T05:08:58;30.97;;;28.07;;
956;SDS011;465;48.802;9.224;2022-08-19T05:11:26;31.87;;;28.90;;
956;SDS011;465;48.802;9.224;2022-08-19T05:13:56;31.43;;;28.43;;
956;SDS011;465;48.802;9.224;2022-08-19T05:16:24;30.30;;;27.67;;
956;SDS011;465;48.802;9.224;2022-08-19T05:18:54;28.23;;;25.63;;
956;SDS011;465;48.802;9.224;2022-08-19T05:21:39;32.07;;;28.87;;
956;SDS011;465;48.802;9.224;2022-08-19T05:24:24;31.53;;;28.57;;
956;SDS011;465;48.802;9.224;2022-08-19T05:26:52;30.83;;;27.87;;
956;SDS011;465;48.802;9.224;2022-08-19T05:29:21;29.53;;;26.83;;
956;SDS011;465;48.802;9.224;2022-08-19T05:31:50;30.93;;;28.03;;
956;SDS011;465;48.802;9.224;2022-08-19T05:34:20;30.10;;;27.20;;
956;SDS011;465;48.802;9.224;2022-08-19T05:36:50;31.03;;;28.00;;
956;SDS011;465;48.802;9.224;2022-08-19T05:39:20;29.43;;;26.63;;
956;SDS011;465;48.802;9.224;2022-08-19T05:41:47;30.53;;;27.73;;
956;SDS011;465;48.802;9.224;2022-08-19T05:44:16;29.97;;;27.33;;
956;SDS011;465;48.802;9.224;2022-08-19T05:46:43;31.40;;;28.37;;
956;SDS011;465;48.802;9.224;2022-08-19T05:49:12;30.37;;;27.67;;
956;SDS011;465;48.802;9.224;2022-08-19T05:51:41;29.87;;;26.87;;
956;SDS011;465;48.802;9.224;2022-08-19T05:54:09;31.07;;;28.27;;
956;SDS011;465;48.802;9.224;2022-08-19T05:56:41;31.80;;;28.80;;
956;SDS011;465;48.802;9.224;2022-08-19T05:59:10;32.53;;;29.20;;
956;SDS011;465;48.802;9.224;2022-08-19T06:01:37;32.40;;;29.50;;
956;SDS011;465;48.802;9.224;2022-08-19T06:04:06;28.87;;;26.17;;
956;SDS011;465;48.802;9.224;2022-08-19T06:06:33;30.80;;;28.00;;
956;SDS011;465;48.802;9.224;2022-08-19T06:09:02;30.13;;;27.33;;
956;SDS011;465;48.802;9.224;2022-08-19T06:11:35;30.40;;;27.80;;
956;SDS011;465;48.802;9.224;2022-08-19T06:14:04;32.00;;;27.67;;
956;SDS011;465;48.802;9.224;2022-08-19T06:16:33;31.37;;;28.57;;
956;SDS011;465;48.802;9.224;2022-08-19T06:19:01;30.07;;;27.17;;
956;SDS011;465;48.802;9.224;2022-08-19T06:21:31;30.10;;;27.27;;
956;SDS011;465;48.802;9.224;2022-08-19T06:23:58;30.83;;;28.03;;
956;SDS011;465;48.802;9.224;2022-08-19T06:26:26;31.17;;;28.37;;
956;SDS011;465;48.802;9.224;2022-08-19T06:28:53;35.10;;;31.70;;
956;SDS011;465;48.802;9.224;2022-08-19T06:31:21;31.70;;;28.63;;
956;SDS011;465;48.802;9.224;2022-08-19T06:33:53;33.87;;;30.47;;
956;SDS011;465;48.802;9.224;2022-08-19T06:36:24;33.33;;;30.23;;
956;SDS011;465;48.802;9.224;2022-08-19T06:38:59;33.30;;;30.27;;
956;SDS011;465;48.802;9.224;2022-08-19T06:41:44;33.13;;;29.77;;
956;SDS011;465;48.802;9.224;2022-08-19T06:44:14;33.47;;;30.33;;
956;SDS011;465;48.802;9.224;2022-08-19T06:46:42;33.80;;;30.20;;
956;SDS011;465;48.802;9.224;2022-08-19T06:49:13;33.70;;;30.37;;
956;SDS011;465;48.802;9.224;2022-08-19T06:51:41;33.73;;;30.63;;
956;SDS011;465;48.802;9.224;2022-08-19T06:54:09;31.97;;;29.13;;
956;SDS011;465;48.802;9.224;2022-08-19T06:56:36;33.73;;;30.13;;
956;SDS011;465;48.802;9.224;2022-08-19T06:59:06;32.37;;;29.00;;
956;SDS011;465;48.802;9.224;2022-08-19T07:01:35;33.37;;;30.10;;
956;SDS011;465;48.802;9.224;2022-08-19T07:04:03;33.00;;;29.90;;
956;SDS011;465;48.802;9.224;2022-08-19T07:06:31;31.63;;;28.53;;
956;SDS011;465;48.802;9.224;2022-08-19T07:08:57;32.67;;;29.43;;
956;SDS011;465;48.802;9.224;2022-08-19T07:11:24;30.30;;;27.60;;
956;SDS011;465;48.802;9.224;2022-08-19T07:13:54;31.97;;;28.70;;
956;SDS011;465;48.802;9.224;2022-08-19T07:16:22;32.53;;;29.23;;
956;SDS011;465;48.802;9.224;2022-08-19T07:18:50;30.83;;;27.70;;
956;SDS011;465;48.802;9.224;2022-08-19T07:21:21;30.83;;;27.97;;
956;SDS011;465;48.802;9.224;2022-08-19T07:23:51;30.97;;;28.17;;
956;SDS011;465;48.802;9.224;2022-08-19T07:26:22;29.70;;;27.03;;
956;SDS011;465;48.802;9.224;2022-08-19T07:28:51;32.07;;;29.17;;
956;SDS011;465;48.802;9.224;2022-08-19T07:31:19;28.70;;;25.67;;
956;SDS011;465;48.802;9.224;2022-08-19T07:33:50;28.80;;;25.80;;
956;SDS011;465;48.802;9.224;2022-08-19T07:36:21;31.90;;;28.73;;
956;SDS011;465;48.802;9.224;2022-08-19T07:38:53;29.30;;;26.53;;
956;SDS011;465;48.802;9.224;2022-08-19T07:41:22;30.70;;;27.70;;
956;SDS011;465;48.802;9.224;2022-08-19T07:43:51;28.10;;;25.40;;
956;SDS011;465;48.802;9.224;2022-08-19T07:53:13;28.23;;;25.43;;
956;SDS011;465;48.802;9.224;2022-08-19T08:03:12;32.37;;;27.73;;
956;SDS011;465;48.802;9.224;2022-08-19T08:05:44;29.87;;;26.80;;
956;SDS011;465;48.802;9.224;2022-08-19T08:08:30;29.30;;;26.50;;
956;SDS011;465;48.802;9.224;2022-08-19T08:11:15;30.33;;;27.17;;
956;SDS011;465;48.802;9.224;2022-08-19T08:13:44;28.30;;;25.87;;
956;SDS011;465;48.802;9.224;2022-08-19T08:16:11;30.40;;;27.50;;
956;SDS011;465;48.802;9.224;2022-08-19T08:18:37;31.97;;;29.07;;
956;SDS011;465;48.802;9.224;2022-08-19T08:21:07;29.27;;;26.57;;
956;SDS011;465;48.802;9.224;2022-08-19T08:23:35;30.73;;;27.83;;
956;SDS011;465;48.802;9.224;2022-08-19T08:26:02;30.33;;;27.30;;
956;SDS011;465;48.802;9.224;2022-08-19T08:28:29;28.20;;;25.57;;
956;SDS011;465;48.802;9.224;2022-08-19T08:30:57;28.60;;;25.87;;
956;SDS011;465;48.802;9.224;2022-08-19T08:33:25;29.00;;;26.43;;
956;SDS011;465;48.802;9.224;2022-08-19T08:35:54;29.60;;;26.60;;
956;SDS011;465;48.802;9.224;2022-08-19T08:38:21;27.67;;;24.93;;
956;SDS011;465;48.802;9.224;2022-08-19T08:40:50;30.60;;;27.40;;
956;SDS011;465;48.802;9.224;2022-08-19T08:43:23;32.30;;;29.20;;
956;SDS011;465;48.802;9.224;2022-08-19T08:45:56;30.60;;;27.67;;
956;SDS011;465;48.802;9.224;2022-08-19T08:48:35;29.33;;;26.50;;
956;SDS011;465;48.802;9.224;2022-08-19T08:51:05;30.10;;;27.23;;
956;SDS011;465;48.802;9.224;2022-08-19T08:53:36;29.20;;;26.40;;
956;SDS011;465;48.802;9.224;2022-08-19T08:56:06;26.60;;;24.10;;
956;SDS011;465;48.802;9.224;2022-08-19T08:58:40;28.90;;;26.30;;
956;SDS011;465;48.802;9.224;2022-08-19T09:01:13;27.93;;;25.43;;
956;SDS011;465;48.802;9.224;2022-08-19T09:03:40;28.20;;;25.50;;
956;SDS011;465;48.802;9.224;2022-08-19T09:06:12;25.90;;;23.27;;
956;SDS011;465;48.802;9.224;2022-08-19T09:08:48;26.60;;;24.10;;
956;SDS011;465;48.802;9.224;2022-08-19T09:11:24;27.30;;;24.77;;
956;SDS011;465;48.802;9.224;2022-08-19T09:14:05;26.00;;;23.80;;
956;SDS011;465;48.802;9.224;2022-08-19T09:16:39;25.27;;;22.97;;
956;SDS011;465;48.802;9.224;2022-08-19T09:19:07;25.73;;;23.43;;
956;SDS011;465;48.802;9.224;2022-08-19T09:21:35;26.50;;;24.10;;
956;SDS011;465;48.802;9.224;2022-08-19T09:24:04;25.33;;;23.13;;
956;SDS011;465;48.802;9.224;2022-08-19T09:26:32;24.47;;;22.40;;
956;SDS011;465;48.802;9.224;2022-08-19T09:29:00;26.20;;;23.77;;
956;SDS011;465;48.802;9.224;2022-08-19T09:31:30;27.97;;;25.43;;
956;SDS011;465;48.802;9.224;2022-08-19T09:33:57;25.90;;;23.57;;
956;SDS011;465;48.802;9.224;2022-08-19T09:36:26;25.03;;;22.73;;
956;SDS011;465;48.802;9.224;2022-08-19T09:38:57;28.37;;;25.87;;
956;SDS011;465;48.802;9.224;2022-08-19T09:41:24;26.83;;;24.50;;
956;SDS011;465;48.802;9.224;2022-08-19T09:43:54;25.97;;;23.77;;
956;SDS011;465;48.802;9.224;2022-08-19T09:46:22;24.70;;;22.47;;
956;SDS011;465;48.802;9.224;2022-08-19T09:48:51;24.80;;;22.60;;
956;SDS011;465;48.802;9.224;2022-08-19T09:51:19;27.33;;;23.80;;
956;SDS011;465;48.802;9.224;2022-08-19T09:53:48;24.40;;;22.33;;
956;SDS011;465;48.802;9.224;2022-08-19T09:56:16;24.33;;;21.97;;
956;SDS011;465;48.802;9.224;2022-08-19T09:58:44;24.80;;;22.73;;
956;SDS011;465;48.802;9.224;2022-08-19T10:01:16;26.00;;;23.50;;
956;SDS011;465;48.802;9.224;2022-08-19T10:03:46;25.87;;;23.70;;
956;SDS011;465;48.802;9.224;2022-08-19T10:06:14;25.20;;;22.80;;
956;SDS011;465;48.802;9.224;2022-08-19T10:08:44;24.50;;;21.97;;
956;SDS011;465;48.802;9.224;2022-08-19T10:11:12;22.77;;;20.73;;
956;SDS011;465;48.802;9.224;2022-08-19T10:13:41;25.10;;;22.87;;
956;SDS011;465;48.802;9.224;2022-08-19T10:16:09;23.80;;;21.67;;
956;SDS011;465;48.802;9.224;2022-08-19T10:18:39;22.93;;;20.90;;
956;SDS011;465;48.802;9.224;2022-08-19T10:21:10;23.03;;;21.13;;
956;SDS011;465;48.802;9.224;2022-08-19T10:23:39;22.30;;;20.30;;
956;SDS011;465;48.802;9.224;2022-08-19T10:26:10;23.00;;;21.00;;
956;SDS011;465;48.802;9.224;2022-08-19T10:28:38;22.47;;;20.60;;
956;SDS011;465;48.802;9.224;2022-08-19T10:31:06;24.20;;;21.73;;
956;SDS011;465;48.802;9.224;2022-08-19T10:33:33;25.23;;;22.93;;
956;SDS011;465;48.802;9.224;2022-08-19T10:36:03;24.07;;;21.87;;
956;SDS011;465;48.802;9.224;2022-08-19T10:38:32;23.30;;;21.00;;
956;SDS011;465;48.802;9.224;2022-08-19T10:41:05;22.73;;;20.53;;
956;SDS011;465;48.802;9.224;2022-08-19T10:43:33;22.73;;;20.43;;
956;SDS011;465;48.802;9.224;2022-08-19T10:46:02;21.67;;;19.47;;
956;SDS011;465;48.802;9.224;2022-08-19T10:48:30;20.73;;;19.03;;
956;SDS011;465;48.802;9.224;2022-08-19T10:50:57;19.80;;;17.97;;
956;SDS011;465;48.802;9.224;2022-08-19T10:53:43;20.53;;;18.80;;
956;SDS011;465;48.802;9.224;2022-08-19T10:56:11;20.47;;;18.47;;
956;SDS011;465;48.802;9.224;2022-08-19T10:58:56;20.27;;;18.40;;
956;SDS011;465;48.802;9.224;2022-08-19T11:01:23;19.23;;;17.40;;
956;SDS011;465;48.802;9.224;2022-08-19T11:03:50;19.77;;;18.07;;
956;SDS011;465;48.802;9.224;2022-08-19T11:06:17;18.90;;;17.20;;
956;SDS011;465;48.802;9.224;2022-08-19T11:08:47;16.43;;;15.03;;
956;SDS011;465;48.802;9.224;2022-08-19T11:11:14;17.73;;;16.13;;
956;SDS011;465;48.802;9.224;2022-08-19T11:13:41;15.47;;;14.30;;
956;SDS011;465;48.802;9.224;2022-08-19T11:16:11;16.00;;;14.70;;
956;SDS011;465;48.802;9.224;2022-08-19T11:18:41;16.40;;;14.90;;
956;SDS011;465;48.802;9.224;2022-08-19T11:21:12;14.73;;;13.27;;
956;SDS011;465;48.802;9.224;2022-08-19T11:23:42;14.03;;;12.70;;
956;SDS011;465;48.802;9.224;2022-08-19T11:26:10;13.50;;;12.40;;
956;SDS011;465;48.802;9.224;2022-08-19T11:28:40;14.67;;;13.20;;
956;SDS011;465;48.802;9.224;2022-08-19T11:31:21;13.80;;;12.60;;
956;SDS011;465;48.802;9.224;2022-08-19T11:33:49;14.07;;;12.57;;
956;SDS011;465;48.802;9.224;2022-08-19T11:36:19;12.00;;;10.87;;
956;SDS011;465;48.802;9.224;2022-08-19T11:38:46;12.60;;;11.50;;
956;SDS011;465;48.802;9.224;2022-08-19T11:41:15;12.77;;;11.77;;
956;SDS011;465;48.802;9.224;2022-08-19T11:43:44;27.90;;;25.40;;
956;SDS011;465;48.802;9.224;2022-08-19T11:46:11;27.77;;;24.93;;
956;SDS011;465;48.802;9.224;2022-08-19T11:48:40;30.57;;;27.60;;
956;SDS011;465;48.802;9.224;2022-08-19T11:51:08;35.77;;;32.13;;
956;SDS011;465;48.802;9.224;2022-08-19T11:53:37;38.70;;;34.90;;
956;SDS011;465;48.802;9.224;2022-08-19T11:56:04;36.30;;;32.87;;
956;SDS011;465;48.802;9.224;2022-08-19T11:58:34;35.70;;;32.30;;
956;SDS011;465;48.802;9.224;2022-08-19T12:01:04;35.60;;;32.23;;
956;SDS011;465;48.802;9.224;2022-08-19T12:03:32;37.20;;;33.77;;
956;SDS011;465;48.802;9.224;2022-08-19T12:06:02;37.40;;;33.67;;
956;SDS011;465;48.802;9.224;2022-08-19T12:08:30;38.10;;;34.43;;
956;SDS011;465;48.802;9.224;2022-08-19T12:10:57;38.13;;;34.50;;
956;SDS011;465;48.802;9.224;2022-08-19T12:13:25;37.70;;;34.20;;
956;SDS011;465;48.802;9.224;2022-08-19T12:15:54;35.43;;;32.17;;
956;SDS011;465;48.802;9.224;2022-08-19T12:18:21;35.97;;;32.30;;
956;SDS011;465;48.802;9.224;2022-08-19T12:20:50;36.07;;;32.67;;
956;SDS011;465;48.802;9.224;2022-08-19T12:23:18;34.03;;;30.77;;
956;SDS011;465;48.802;9.224;2022-08-19T12:25:45;33.90;;;30.70;;
956;SDS011;465;48.802;9.224;2022-08-19T12:28:15;35.80;;;32.50;;
956;SDS011;465;48.802;9.224;2022-08-19T12:30:41;35.30;;;31.60;;
956;SDS011;465;48.802;9.224;2022-08-19T12:33:09;36.07;;;32.47;;
956;SDS011;465;48.802;9.224;2022-08-19T12:35:39;37.03;;;33.53;;
956;SDS011;465;48.802;9.224;2022-08-19T12:38:06;37.87;;;34.10;;
956;SDS011;465;48.802;9.224;2022-08-19T12:40:33;39.90;;;35.70;;
956;SDS011;465;48.802;9.224;2022-08-19T12:42:59;35.93;;;32.57;;
956;SDS011;465;48.802;9.224;2022-08-19T12:45:26;36.30;;;32.90;;
956;SDS011;465;48.802;9.224;2022-08-19T12:47:53;38.77;;;35.03;;
956;SDS011;465;48.802;9.224;2022-08-19T12:50:21;40.03;;;34.47;;
956;SDS011;465;48.802;9.224;2022-08-19T12:52:48;37.63;;;33.70;;
956;SDS011;465;48.802;9.224;2022-08-19T12:55:15;38.40;;;34.40;;
956;SDS011;465;48.802;9.224;2022-08-19T12:57:43;41.17;;;37.17;;
956;SDS011;465;48.802;9.224;2022-08-19T13:00:11;36.10;;;32.60;;
956;SDS011;465;48.802;9.224;2022-08-19T13:02:39;37.50;;;33.90;;
956;SDS011;465;48.802;9.224;2022-08-19T13:05:09;37.30;;;33.70;;
956;SDS011;465;48.802;9.224;2022-08-19T13:07:40;35.60;;;32.20;;
956;SDS011;465;48.802;9.224;2022-08-19T13:10:09;39.33;;;35.80;;
956;SDS011;465;48.802;9.224;2022-08-19T13:12:37;37.60;;;34.07;;
956;SDS011;465;48.802;9.224;2022-08-19T13:15:06;36.40;;;33.00;;
956;SDS011;465;48.802;9.224;2022-08-19T13:17:34;35.97;;;32.67;;
956;SDS011;465;48.802;9.224;2022-08-19T13:20:01;36.73;;;32.93;;
956;SDS011;465;48.802;9.224;2022-08-19T13:22:29;35.57;;;32.27;;
956;SDS011;465;48.802;9.224;2022-08-19T13:24:57;35.83;;;32.57;;
956;SDS011;465;48.802;9.224;2022-08-19T13:27:24;34.10;;;30.73;;
956;SDS011;465;48.802;9.224;2022-08-19T13:29:51;37.40;;;33.70;;
956;SDS011;465;48.802;9.224;2022-08-19T13:32:35;34.97;;;31.63;;
956;SDS011;465;48.802;9.224;2022-08-19T13:35:19;34.60;;;31.30;;
956;SDS011;465;48.802;9.224;2022-08-19T13:37:46;35.77;;;32.17;;
956;SDS011;465;48.802;9.224;2022-08-19T13:40:15;39.33;;;35.17;;
956;SDS011;465;48.802;9.224;2022-08-19T13:42:44;37.77;;;34.27;;
956;SDS011;465;48.802;9.224;2022-08-19T13:45:12;37.57;;;33.90;;
956;SDS011;465;48.802;9.224;2022-08-19T13:47:40;39.30;;;35.40;;
956;SDS011;465;48.802;9.224;2022-08-19T13:50:09;40.27;;;36.50;;
956;SDS011;465;48.802;9.224;2022-08-19T13:52:37;40.57;;;36.43;;
956;SDS011;465;48.802;9.224;2022-08-19T13:55:04;39.00;;;35.20;;
956;SDS011;465;48.802;9.224;2022-08-19T13:57:33;40.37;;;36.47;;
956;SDS011;465;48.802;9.224;2022-08-19T14:00:01;40.37;;;36.37;;
956;SDS011;465;48.802;9.224;2022-08-19T14:02:29;41.73;;;37.63;;
956;SDS011;465;48.802;9.224;2022-08-19T14:04:56;42.57;;;38.40;;
956;SDS011;465;48.802;9.224;2022-08-19T14:07:24;45.83;;;41.10;;
956;SDS011;465;48.802;9.224;2022-08-19T14:09:50;46.13;;;41.73;;
956;SDS011;465;48.802;9.224;2022-08-19T14:12:18;44.97;;;40.07;;
956;SDS011;465;48.802;9.224;2022-08-19T14:14:47;46.63;;;42.10;;
956;SDS011;465;48.802;9.224;2022-08-19T14:17:14;45.57;;;40.93;;
956;SDS011;465;48.802;9.224;2022-08-19T14:19:42;48.83;;;43.37;;
956;SDS011;465;48.802;9.224;2022-08-19T14:22:09;44.13;;;39.30;;
956;SDS011;465;48.802;9.224;2022-08-19T14:24:36;46.87;;;41.97;;
956;SDS011;465;48.802;9.224;2022-08-19T14:27:04;48.50;;;43.80;;
956;SDS011;465;48.802;9.224;2022-08-19T14:29:31;46.20;;;41.67;;
956;SDS011;465;48.802;9.224;2022-08-19T14:31:59;44.40;;;40.00;;
956;SDS011;465;48.802;9.224;2022-08-19T14:34:26;43.80;;;39.33;;
956;SDS011;465;48.802;9.224;2022-08-19T14:36:53;43.03;;;38.53;;
956;SDS011;465;48.802;9.224;2022-08-19T14:39:19;42.77;;;38.50;;
956;SDS011;465;48.802;9.224;2022-08-19T14:41:46;42.87;;;38.57;;
956;SDS011;465;48.802;9.224;2022-08-19T14:44:13;41.27;;;37.27;;
956;SDS011;465;48.802;9.224;2022-08-19T14:46:39;39.37;;;35.60;;
956;SDS011;465;48.802;9.224;2022-08-19T14:49:07;39.07;;;35.30;;
956;SDS011;465;48.802;9.224;2022-08-19T14:51:37;41.63;;;37.73;;
956;SDS011;465;48.802;9.224;2022-08-19T14:54:04;44.43;;;40.37;;
956;SDS011;465;48.802;9.224;2022-08-19T14:56:31;39.00;;;35.40;;
956;SDS011;465;48.802;9.224;2022-08-19T14:59:00;39.60;;;35.90;;
956;SDS011;465;48.802;9.224;2022-08-19T15:01:27;40.97;;;37.17;;
956;SDS011;465;48.802;9.224;2022-08-19T15:03:54;39.57;;;35.77;;
956;SDS011;465;48.802;9.224;2022-08-19T15:06:24;39.77;;;36.17;;
956;SDS011;465;48.802;9.224;2022-08-19T15:08:51;38.57;;;35.07;;
956;SDS011;465;48.802;9.224;2022-08-19T15:11:19;39.97;;;36.20;;
956;SDS011;465;48.802;9.224;2022-08-19T15:13:51;36.67;;;32.93;;
956;SDS011;465;48.802;9.224;2022-08-19T15:16:18;38.30;;;34.77;;
956;SDS011;465;48.802;9.224;2022-08-19T15:18:46;36.17;;;32.83;;
956;SDS011;465;48.802;9.224;2022-08-19T15:21:16;35.80;;;32.60;;
956;SDS011;465;48.802;9.224;2022-08-19T15:23:44;36.17;;;32.93;;
956;SDS011;465;48.802;9.224;2022-08-19T15:26:12;34.87;;;31.67;;
956;SDS011;465;48.802;9.224;2022-08-19T15:28:39;34.87;;;31.73;;
956;SDS011;465;48.802;9.224;2022-08-19T15:31:06;32.57;;;29.60;;
956;SDS011;465;48.802;9.224;2022-08-19T15:33:34;32.87;;;30.07;;
956;SDS011;465;48.802;9.224;2022-08-19T15:36:02;33.60;;;30.70;;
956;SDS011;465;48.802;9.224;2022-08-19T15:38:29;32.27;;;29.03;;
956;SDS011;465;48.802;9.224;2022-08-19T15:40:59;31.17;;;28.47;;